SKBQ/BAQ METAR and TAF weather

Enter ICAO airport designator
Station Type Date Time Source
SKBQ METAR 2020/01/22 15:00 UTC NOAA

SKBQ 221500Z 00000KT 9999 SCT012 BKN200 27/23 A2991 NOSIG


Station Type Date Time Source
SKBQ Decoded METAR 2020/01/22 15:00 UTC NOAA

Barranquilla / Ernestocortissoz, Colombia (SKBQ) 10-53N 074-47W 30M
Jan 22, 2020 - 10:00 AM EST / 2020.01.22 1500 UTC
Wind: Calm:0
Visibility: greater than 7 mile(s):0
Sky conditions: mostly cloudy
Temperature: 80 F (27 C)
Dew Point: 73 F (23 C)
Relative Humidity: 78%
Pressure (altimeter): 29.91 in. Hg (1012 hPa)
ob: SKBQ 221500Z 00000KT 9999 SCT012 BKN200 27/23 A2991 NOSIG
cycle: 15

Station Type Date Time Source
SKBQ TAF 2020/01/22 12:45 UTC NOAA

TAF SKBQ 221030Z 2212/2312 01004KT 9999 SCT015
TEMPO 2212/2214 5000 BR BKN008 PROB40
TEMPO 2219/2223 01010KT RA BKN010 TX32/2217Z TN25/2310Z

Example: see airport list